Time;durP1;ratioP1;P1;durP2;ratioP2;P2;SDS_P1;SDS_P2;PMS_P1;PMS_P2;Temp;Humidity;BMP_temperature;BMP_pressure;BME280_temperature;BME280_humidity;BME280_pressure;Samples;Min_cycle;Max_cycle;Signal;HPM_P1;HPM_P2
2022/06/22 00:01:53;;;;;;;3.15;2.00;;;;;;;17.66;100.00;99477.86;1439430;99;21015;-90
2022/06/22 00:04:24;;;;;;;7.17;2.17;;;;;;;17.58;100.00;99469.98;1439643;99;21126;-90
2022/06/22 00:07:07;;;;;;;5.83;2.00;;;;;;;17.49;100.00;99456.44;1397441;101;21148;-89
2022/06/22 00:09:38;;;;;;;11.97;2.00;;;;;;;17.43;100.00;99444.73;1329493;106;21147;-90
2022/06/22 00:12:06;;;;;;;7.85;1.95;;;;;;;17.35;100.00;99436.06;1329610;106;21454;-88
2022/06/22 00:14:46;;;;;;;9.50;2.30;;;;;;;17.30;100.00;99422.09;1329438;106;21178;-88
2022/06/22 00:17:20;;;;;;;6.85;2.10;;;;;;;17.28;100.00;99399.05;1342293;104;21684;-90
2022/06/22 00:19:47;;;;;;;9.85;2.58;;;;;;;17.27;100.00;99398.83;1380687;101;21207;-90
2022/06/22 00:25:03;;;;;;;9.20;3.83;;;;;;;17.19;100.00;99393.11;1317266;108;21192;-90
2022/06/22 00:27:37;;;;;;;12.55;4.30;;;;;;;17.19;100.00;99395.04;1317235;108;21663;-90
2022/06/22 00:30:27;;;;;;;;;;;;;;;17.16;100.00;99397.06;1324914;107;21193;-88
2022/06/22 00:33:16;;;;;;;15.08;4.83;;;;;;;17.18;100.00;99401.05;1330952;107;20622;-89
2022/06/22 00:35:52;;;;;;;9.00;4.00;;;;;;;17.24;100.00;99394.84;1332635;107;21193;-88
2022/06/22 00:38:29;;;;;;;9.03;4.15;;;;;;;17.25;100.00;99369.98;1332601;107;21236;-88
2022/06/22 00:41:00;;;;;;;8.90;4.28;;;;;;;17.27;100.00;99387.37;1332957;107;21186;-89
2022/06/22 00:43:31;;;;;;;14.95;3.70;;;;;;;17.29;100.00;99395.19;1332514;107;21150;-89
2022/06/22 00:46:00;;;;;;;8.05;3.33;;;;;;;17.32;100.00;99384.41;1315850;109;21730;-89
2022/06/22 00:48:35;;;;;;;7.50;3.80;;;;;;;17.34;100.00;99378.66;1323993;106;21204;-89
2022/06/22 00:51:08;;;;;;;5.75;3.12;;;;;;;17.37;100.00;99390.23;1332875;106;21179;-94
2022/06/22 00:53:54;;;;;;;5.58;3.00;;;;;;;17.40;100.00;99403.18;1331470;106;21179;-91
2022/06/22 00:56:41;;;;;;;4.62;2.80;;;;;;;17.41;100.00;99406.95;1304476;108;21206;-91
2022/06/22 00:59:39;;;;;;;9.50;3.45;;;;;;;17.43;100.00;99421.58;1302645;108;21667;-90
2022/06/22 01:02:32;;;;;;;12.58;4.62;;;;;;;17.46;100.00;99431.23;1304777;108;21213;-88
2022/06/22 01:05:27;;;;;;;11.15;5.17;;;;;;;17.55;100.00;99428.43;1345970;104;21223;-89
2022/06/22 01:08:23;;;;;;;12.73;5.17;;;;;;;17.57;100.00;99412.55;1469115;97;21120;-90
2022/06/22 01:14:12;;;;;;;14.73;4.20;;;;;;;17.61;100.00;99432.53;1412296;100;21592;-90
2022/06/22 01:16:43;;;;;;;9.18;3.40;;;;;;;17.62;100.00;99450.49;1435776;99;21733;-89
2022/06/22 01:19:36;;;;;;;9.95;3.12;;;;;;;17.67;100.00;99461.16;1423443;100;22106;-90
2022/06/22 01:22:23;;;;;;;7.05;3.40;;;;;;;17.73;100.00;99471.86;1467450;96;21110;-90
2022/06/22 01:25:09;;;;;;;5.80;2.87;;;;;;;17.75;100.00;99475.06;1470556;97;21149;-89
2022/06/22 01:27:40;;;;;;;3.85;2.55;;;;;;;17.77;100.00;99458.61;1460506;98;21136;-89
2022/06/22 01:30:38;;;;;;;6.30;3.45;;;;;;;17.80;100.00;99450.36;1460532;98;21107;-89
2022/06/22 01:33:33;;;;;;;5.08;2.70;;;;;;;17.77;100.00;99446.91;1432565;99;21258;-92
2022/06/22 01:36:10;;;;;;;11.90;2.72;;;;;;;17.78;100.00;99451.25;1416567;101;21603;-91
2022/06/22 01:38:39;;;;;;;6.08;2.62;;;;;;;17.77;100.00;99446.91;1417357;101;21618;-90
2022/06/22 01:41:28;;;;;;;4.35;2.40;;;;;;;17.77;100.00;99431.92;1417273;101;21173;-89
2022/06/22 01:44:00;;;;;;;5.30;2.72;;;;;;;17.77;100.00;99406.03;1405922;102;21177;-91
2022/06/22 01:46:52;;;;;;;5.55;2.47;;;;;;;17.81;100.00;99400.95;1405976;102;22333;-92
2022/06/22 01:49:29;;;;;;;6.53;2.60;;;;;;;17.81;100.00;99396.86;1393100;102;21065;-93
2022/06/22 01:52:06;;;;;;;4.42;2.40;;;;;;;17.83;100.00;99363.27;1371793;104;21183;-92
2022/06/22 01:54:43;;;;;;;6.10;2.67;;;;;;;17.83;100.00;99321.02;1385596;103;21794;-93
2022/06/22 01:57:16;;;;;;;12.80;3.10;;;;;;;17.79;100.00;99324.75;1388294;103;21224;-92
2022/06/22 02:00:11;;;;;;;4.95;3.00;;;;;;;17.80;100.00;99326.36;1389799;103;21384;-91
2022/06/22 02:02:54;;;;;;;6.20;3.00;;;;;;;17.80;100.00;99317.61;1409710;101;21159;-89
2022/06/22 02:05:33;;;;;;;7.45;3.10;;;;;;;17.78;100.00;99314.99;1413459;101;21155;-93
2022/06/22 02:08:17;;;;;;;6.62;3.60;;;;;;;17.76;100.00;99342.54;1409822;101;21615;-93
2022/06/22 02:10:51;;;;;;;6.55;3.33;;;;;;;17.76;100.00;99349.92;1409414;101;21154;-96
2022/06/22 02:13:31;;;;;;;8.43;3.12;;;;;;;17.76;100.00;99357.52;1409160;101;21391;-96
2022/06/22 02:16:14;;;;;;;7.87;3.22;;;;;;;17.75;100.00;99364.69;1407140;101;21134;-96
2022/06/22 02:19:00;;;;;;;8.00;2.95;;;;;;;17.75;100.00;99385.13;1406010;102;21651;-96
2022/06/22 02:21:47;;;;;;;10.08;3.42;;;;;;;17.78;100.00;99394.02;1431920;99;21208;-96
2022/06/22 02:24:37;;;;;;;4.67;2.90;;;;;;;17.80;100.00;99408.91;1428057;100;21096;-96
2022/06/22 02:27:17;;;;;;;5.17;3.25;;;;;;;17.84;100.00;99408.45;1428746;100;21306;-94
2022/06/22 02:29:53;;;;;;;10.50;3.00;;;;;;;17.91;100.00;99407.89;1431870;100;21271;-93
2022/06/22 02:32:24;;;;;;;5.35;2.87;;;;;;;17.91;100.00;99401.90;1431221;100;21746;-95
2022/06/22 02:34:52;;;;;;;5.05;2.80;;;;;;;17.95;100.00;99411.55;1432034;100;21648;-94
2022/06/22 02:37:22;;;;;;;6.83;2.60;;;;;;;17.98;100.00;99438.13;1431948;100;21128;-94
2022/06/22 02:39:55;;;;;;;8.83;2.72;;;;;;;17.89;100.00;99440.16;1432053;100;22070;-93
2022/06/22 02:45:08;;;;;;;5.95;3.12;;;;;;;17.97;100.00;99437.09;1431806;100;21109;-93
2022/06/22 02:47:51;;;;;;;8.15;3.17;;;;;;;17.98;100.00;99419.63;1431861;100;21608;-93
2022/06/22 02:50:49;;;;;;;6.40;3.58;;;;;;;17.98;100.00;99405.42;1479326;95;21091;-92
2022/06/22 02:53:33;;;;;;;6.15;3.25;;;;;;;17.96;100.00;99409.04;1516243;93;21264;-93
2022/06/22 02:56:01;;;;;;;6.60;3.12;;;;;;;17.90;100.00;99393.47;1523987;94;21062;-93
2022/06/22 02:58:32;;;;;;;6.60;3.10;;;;;;;17.92;100.00;99397.23;1515426;94;21543;-92
2022/06/22 03:01:14;;;;;;;8.10;3.40;;;;;;;17.90;100.00;99386.66;1517574;94;20956;-92
2022/06/22 03:03:49;;;;;;;7.35;3.08;;;;;;;17.89;100.00;99381.56;1551254;92;21126;-93
2022/06/22 03:06:16;;;;;;;7.55;3.10;;;;;;;17.89;100.00;99384.28;1548619;92;21094;-92
2022/06/22 03:08:43;;;;;;;7.62;3.17;;;;;;;17.93;100.00;99390.64;1550882;92;21092;-92
2022/06/22 03:11:11;;;;;;;4.35;2.62;;;;;;;17.98;100.00;99387.70;1550918;92;21601;-93
2022/06/22 03:13:45;;;;;;;5.25;2.87;;;;;;;18.02;100.00;99377.70;1568724;90;21092;-93
2022/06/22 03:16:31;;;;;;;6.95;2.87;;;;;;;18.10;100.00;99379.53;1532691;93;21019;-93
2022/06/22 03:19:02;;;;;;;8.73;3.08;;;;;;;18.21;100.00;99384.55;1532535;93;21094;-92
2022/06/22 03:21:28;;;;;;;6.85;2.60;;;;;;;18.40;100.00;99386.13;1532693;93;21186;-94
2022/06/22 03:24:16;;;;;;;4.35;2.70;;;;;;;18.60;100.00;99382.47;1532674;93;21107;-93
2022/06/22 03:26:50;;;;;;;6.10;3.05;;;;;;;18.74;100.00;99388.17;1532605;93;21080;-92
2022/06/22 03:29:33;;;;;;;7.80;3.00;;;;;;;18.84;100.00;99395.88;1530466;93;21127;-92
2022/06/22 03:32:25;;;;;;;5.90;3.00;;;;;;;19.03;100.00;99390.61;1530642;93;21281;-94
2022/06/22 03:35:02;;;;;;;6.42;2.62;;;;;;;19.41;100.00;99387.14;1530158;93;21110;-92
2022/06/22 03:37:34;;;;;;;4.70;2.87;;;;;;;19.60;100.00;99389.23;1495218;96;21144;-94
2022/06/22 03:40:08;;;;;;;7.40;3.50;;;;;;;19.63;100.00;99392.63;1442808;99;21542;-93
2022/06/22 03:42:40;;;;;;;7.05;3.20;;;;;;;19.68;100.00;99398.67;1443076;99;21580;-92
2022/06/22 03:45:26;;;;;;;5.45;3.02;;;;;;;19.74;100.00;99400.58;1422605;99;21379;-91
2022/06/22 03:48:03;;;;;;;7.72;3.10;;;;;;;19.75;100.00;99399.42;1415566;100;21064;-91
2022/06/22 03:50:49;;;;;;;4.42;2.62;;;;;;;19.81;100.00;99407.59;1412893;98;21163;-93
2022/06/22 03:53:23;;;;;;;7.10;3.08;;;;;;;19.85;100.00;99407.09;1426653;100;21116;-93
2022/06/22 03:55:54;;;;;;;9.40;3.05;;;;;;;19.91;100.00;99415.83;1402657;102;21082;-92
2022/06/22 03:58:21;;;;;;;10.20;3.10;;;;;;;20.04;100.00;99415.99;1395497;102;21143;-90
2022/06/22 04:00:48;;;;;;;5.25;2.62;;;;;;;20.16;100.00;99414.53;1367965;104;21109;-90
2022/06/22 04:03:18;;;;;;;10.90;2.75;;;;;;;20.38;100.00;99414.50;1408134;100;21634;-91
2022/06/22 04:05:54;;;;;;;6.95;2.60;;;;;;;20.68;100.00;99424.98;1408199;101;21091;-92
2022/06/22 04:08:25;;;;;;;8.78;2.92;;;;;;;21.23;100.00;99427.72;1349653;106;21167;-91
2022/06/22 04:11:06;;;;;;;6.70;2.75;;;;;;;21.82;100.00;99422.44;1351257;106;21175;-95
2022/06/22 04:14:01;;;;;;;4.65;2.65;;;;;;;21.87;100.00;99423.52;1363267;104;21080;-94
2022/06/22 04:16:38;;;;;;;4.17;2.60;;;;;;;21.77;100.00;99429.02;1384099;103;21036;-92
2022/06/22 04:19:21;;;;;;;5.78;2.98;;;;;;;21.74;100.00;99428.97;1345314;106;21180;-93
2022/06/22 04:21:58;;;;;;;6.33;2.95;;;;;;;21.94;100.00;99425.58;1344563;106;21178;-94
2022/06/22 04:24:35;;;;;;;7.15;3.10;;;;;;;22.22;100.00;99426.70;1343257;106;21428;-92
2022/06/22 04:27:18;;;;;;;7.87;3.12;;;;;;;22.80;100.00;99421.52;1342941;106;21116;-95
2022/06/22 04:30:08;;;;;;;5.92;3.00;;;;;;;23.38;100.00;99427.18;1328147;108;21120;-93
2022/06/22 04:33:01;;;;;;;6.60;2.80;;;;;;;23.47;100.00;99418.05;1329142;108;21213;-94
2022/06/22 04:35:57;;;;;;;9.38;2.92;;;;;;;24.00;100.00;99420.03;1366506;104;21767;-96
2022/06/22 04:38:40;;;;;;;6.85;2.70;;;;;;;25.04;100.00;99421.37;1405463;102;21927;-92
2022/06/22 04:41:31;;;;;;;7.30;2.80;;;;;;;25.80;100.00;99424.03;1360496;104;21164;-96
2022/06/22 04:44:15;;;;;;;7.42;2.70;;;;;;;26.37;100.00;99420.53;1332560;107;21161;-93
2022/06/22 04:46:47;;;;;;;10.30;2.72;;;;;;;26.76;100.00;99422.48;1298769;110;21708;-95
2022/06/22 04:49:30;;;;;;;5.90;2.90;;;;;;;26.76;97.22;99425.84;1296933;110;21116;-95
2022/06/22 04:52:07;;;;;;;6.87;2.83;;;;;;;26.92;94.00;99422.06;1301489;109;21770;-96
2022/06/22 04:54:40;;;;;;;14.75;3.15;;;;;;;27.25;92.77;99418.02;1295304;110;21148;-96
2022/06/22 04:57:19;;;;;;;9.03;3.87;;;;;;;27.69;91.69;99422.15;1289728;111;21135;-96
2022/06/22 04:59:46;;;;;;;14.80;3.95;;;;;;;27.95;82.22;99416.67;1246936;113;21211;-96
2022/06/22 05:02:16;;;;;;;11.65;4.70;;;;;;;27.95;77.86;99415.89;1247459;114;21249;-96
2022/06/22 05:04:47;;;;;;;14.98;5.10;;;;;;;28.06;77.52;99421.55;1246604;114;21211;-94
2022/06/22 05:07:56;;;;;;;16.00;5.78;;;;;;;28.46;77.38;99420.63;1246028;115;21719;-94
2022/06/22 05:10:51;;;;;;;23.45;6.00;;;;;;;29.22;75.70;99424.03;1272089;112;21113;-96
2022/06/22 05:13:44;;;;;;;15.08;5.50;;;;;;;30.00;71.48;99419.38;1271554;112;21214;-95
2022/06/22 05:16:19;;;;;;;16.00;4.17;;;;;;;31.09;68.41;99419.30;1326491;106;21221;-92
2022/06/22 05:18:47;;;;;;;10.90;3.65;;;;;;;31.75;62.46;99413.94;1343673;106;21388;-92
2022/06/22 05:21:37;;;;;;;6.92;3.25;;;;;;;32.27;58.08;99418.08;1364320;105;21109;-91
2022/06/22 05:24:34;;;;;;;8.53;2.80;;;;;;;32.88;55.62;99416.48;1363772;105;21684;-91
2022/06/22 05:27:05;;;;;;;10.63;2.92;;;;;;;33.34;52.34;99415.02;1365897;103;21078;-89
2022/06/22 05:29:48;;;;;;;7.42;2.50;;;;;;;34.02;50.10;99405.95;1364163;105;21608;-89
2022/06/22 05:32:22;;;;;;;4.72;2.62;;;;;;;34.56;47.91;99402.97;1363960;105;21181;-91
2022/06/22 05:34:51;;;;;;;3.45;2.52;;;;;;;35.15;46.59;99404.67;1366175;103;21693;-94
2022/06/22 05:37:25;;;;;;;8.63;2.90;;;;;;;35.60;43.75;99401.97;1367256;103;21135;-89
2022/06/22 05:39:52;;;;;;;6.90;2.45;;;;;;;35.81;41.89;99403.75;1385030;102;21657;-89
2022/06/22 05:42:18;;;;;;;4.62;2.10;;;;;;;35.92;40.29;99394.29;1390027;98;21064;-89
2022/06/22 05:44:45;;;;;;;7.75;2.30;;;;;;;36.13;39.66;99389.22;1454952;98;21212;-89
2022/06/22 05:47:19;;;;;;;4.53;2.10;;;;;;;36.45;39.42;99386.30;1455045;98;21047;-89
2022/06/22 05:50:19;;;;;;;5.47;2.10;;;;;;;36.72;39.00;99393.33;1488390;94;21045;-91
2022/06/22 05:52:58;;;;;;;7.60;2.33;;;;;;;37.36;37.18;99384.02;1524973;94;21095;-92
2022/06/22 05:55:48;;;;;;;2.37;1.90;;;;;;;37.61;35.47;99384.88;1556069;91;21597;-94
2022/06/22 05:58:29;;;;;;;6.83;2.37;;;;;;;37.84;34.43;99374.93;1553776;92;21121;-89
2022/06/22 06:00:58;;;;;;;8.43;2.08;;;;;;;38.21;33.39;99376.92;1555380;91;21047;-92
2022/06/22 06:03:45;;;;;;;3.77;2.10;;;;;;;38.52;32.91;99370.13;1625800;87;21600;-95
2022/06/22 06:06:19;;;;;;;6.25;2.52;;;;;;;38.75;32.61;99367.87;1644053;87;21540;-94
2022/06/22 06:08:53;;;;;;;5.97;2.27;;;;;;;38.79;31.01;99363.45;1646861;87;21572;-92
2022/06/22 06:11:24;;;;;;;5.40;2.00;;;;;;;39.01;30.45;99365.30;1646918;87;21176;-93
2022/06/22 06:13:59;;;;;;;5.37;2.22;;;;;;;39.21;29.84;99366.02;1644339;87;21105;-88
2022/06/22 06:16:30;;;;;;;5.03;2.17;;;;;;;39.37;29.55;99359.75;1644499;86;21445;-89
2022/06/22 06:19:00;;;;;;;10.15;2.27;;;;;;;39.64;29.77;99356.56;1628117;87;21072;-90
2022/06/22 06:21:31;;;;;;;4.25;2.40;;;;;;;39.62;28.44;99355.50;1631471;87;21127;-85
2022/06/22 06:24:28;;;;;;;7.80;2.33;;;;;;;39.71;28.12;99347.70;1598453;89;21186;-88
2022/06/22 06:30:22;;;;;;;6.15;2.27;;;;;;;39.64;26.74;99342.46;1488104;95;21199;-89
2022/06/22 06:33:15;;;;;;;4.42;2.22;;;;;;;39.93;26.25;99344.42;1524426;91;21113;-89
2022/06/22 06:35:55;;;;;;;3.25;2.30;;;;;;;40.27;26.59;99342.67;1558841;92;21165;-90
2022/06/22 06:38:54;;;;;;;3.77;2.45;;;;;;;40.36;26.34;99338.31;1560177;92;21223;-88
2022/06/22 06:42:03;;;;;;;8.50;2.40;;;;;;;40.45;26.47;99342.38;1560583;92;21609;-88
2022/06/22 06:44:23;;;;;;;3.60;2.50;;;;;;;40.70;25.75;99344.32;1533558;93;21141;-88
2022/06/22 06:46:53;;;;;;;3.25;2.35;;;;;;;40.92;24.93;99346.56;1533614;93;21491;-87
2022/06/22 06:49:37;;;;;;;5.37;2.05;;;;;;;40.93;25.04;99348.91;1533664;93;20987;-88
2022/06/22 06:52:46;;;;;;;3.67;2.45;;;;;;;41.22;25.75;99345.71;1533545;93;21371;-89
2022/06/22 06:55:29;;;;;;;4.53;2.22;;;;;;;41.79;24.29;99343.39;1529182;93;21079;-89
2022/06/22 06:58:16;;;;;;;4.00;2.20;;;;;;;41.64;23.81;99348.45;1524713;94;21163;-87
2022/06/22 07:00:44;;;;;;;4.72;2.27;;;;;;;41.45;24.39;99350.25;1508833;95;21082;-92
2022/06/22 07:03:21;;;;;;;3.98;2.17;;;;;;;41.64;23.54;99346.40;1517155;93;21202;-86
2022/06/22 07:05:50;;;;;;;5.40;2.40;;;;;;;41.23;23.42;99348.02;1529956;93;21112;-86
2022/06/22 07:08:21;;;;;;;4.55;2.10;;;;;;;41.51;23.66;99338.36;1495655;96;21090;-89
2022/06/22 07:10:53;;;;;;;6.15;2.50;;;;;;;40.93;22.89;99345.31;1479179;94;21146;-88
2022/06/22 07:13:26;;;;;;;2.80;2.15;;;;;;;40.31;24.02;99349.67;1397694;101;21150;-87
2022/06/22 07:15:57;;;;;;;2.58;2.17;;;;;;;40.74;24.04;99347.08;1390776;101;21118;-87
2022/06/22 07:18:36;;;;;;;2.90;2.20;;;;;;;41.18;23.83;99335.25;1381002;102;21240;-87
2022/06/22 07:21:29;;;;;;;5.08;2.10;;;;;;;41.74;23.23;99340.68;1382434;102;21106;-91
2022/06/22 07:24:18;;;;;;;2.37;2.17;;;;;;;42.17;22.72;99336.38;1380460;102;21125;-88
2022/06/22 07:27:01;;;;;;;4.58;1.90;;;;;;;42.23;22.19;99344.13;1374132;103;21126;-88
2022/06/22 07:29:47;;;;;;;4.03;2.10;;;;;;;41.49;21.62;99347.20;1372897;103;21519;-94
2022/06/22 07:32:46;;;;;;;4.15;1.65;;;;;;;40.82;22.88;99348.80;1372998;103;21953;-87
2022/06/22 07:35:28;;;;;;;3.60;1.65;;;;;;;40.32;22.46;99340.55;1434798;98;21029;-88
2022/06/22 07:38:23;;;;;;;;;;;;;;;38.75;23.41;99332.66;1403563;101;21161;-89
2022/06/22 07:43:36;;;;;;;6.55;2.10;;;;;;;39.85;23.84;99330.59;1397944;101;21056;-88
2022/06/22 07:46:04;;;;;;;4.70;1.90;;;;;;;40.56;22.92;99325.53;1398181;101;21272;-88
2022/06/22 07:48:35;;;;;;;3.37;1.87;;;;;;;40.68;22.17;99329.91;1404203;101;21655;-88
2022/06/22 07:51:05;;;;;;;2.45;1.50;;;;;;;39.98;22.56;99328.84;1457651;98;21027;-88
2022/06/22 07:53:55;;;;;;;2.72;1.67;;;;;;;39.28;23.00;99328.19;1455300;98;21099;-87
2022/06/22 07:56:41;;;;;;;2.60;1.70;;;;;;;38.73;23.24;99332.36;1524004;91;21084;-88
2022/06/22 07:59:21;;;;;;;3.33;1.75;;;;;;;39.28;23.51;99307.81;1530381;93;22029;-88
2022/06/22 08:01:50;;;;;;;2.58;1.75;;;;;;;39.28;23.51;99307.81;1528349;93;21073;-88
2022/06/22 08:04:27;;;;;;;4.40;1.70;;;;;;;39.64;23.64;99325.53;1524395;93;21119;-89
2022/06/22 08:07:07;;;;;;;4.37;2.10;;;;;;;40.15;23.57;99308.66;1520907;94;21070;-90
2022/06/22 08:09:58;;;;;;;3.62;1.72;;;;;;;40.87;22.38;99325.48;1542443;87;21066;-90
2022/06/22 08:12:32;;;;;;;3.42;1.70;;;;;;;40.79;21.49;99324.38;1597183;89;21080;-87
2022/06/22 08:15:03;;;;;;;2.33;1.50;;;;;;;39.92;23.12;99330.83;1556515;92;21109;-93
2022/06/22 08:17:45;;;;;;;10.10;2.42;;;;;;;39.33;23.58;99309.21;1503425;95;25255;-88
2022/06/22 08:20:18;;;;;;;8.78;1.55;;;;;;;38.97;23.57;99341.38;1503647;95;21671;-89
2022/06/22 08:22:46;;;;;;;7.67;1.87;;;;;;;37.63;24.33;99342.38;1503495;95;21171;-88
2022/06/22 08:25:16;;;;;;;5.47;1.80;;;;;;;37.61;24.86;99337.86;1503425;95;21647;-88
2022/06/22 08:27:43;;;;;;;3.30;1.75;;;;;;;37.43;24.83;99337.29;1503480;95;21100;-88
2022/06/22 08:30:12;;;;;;;3.77;2.33;;;;;;;36.62;25.20;99345.44;1503513;95;21097;-89
2022/06/22 08:32:53;;;;;;;5.60;2.00;;;;;;;35.78;25.54;99345.17;1503507;95;21118;-88
2022/06/22 08:35:30;;;;;;;4.75;2.12;;;;;;;36.48;26.59;99345.44;1522861;93;20976;-89
2022/06/22 08:38:16;;;;;;;3.62;2.10;;;;;;;36.53;24.84;99336.42;1509652;94;21512;-88
2022/06/22 08:41:11;;;;;;;8.35;2.90;;;;;;;36.25;25.22;99327.82;1529595;92;21042;-87
2022/06/22 08:44:03;;;;;;;5.08;2.40;;;;;;;35.91;25.47;99338.80;1531733;92;21085;-89
2022/06/22 08:46:49;;;;;;;7.33;2.33;;;;;;;35.39;25.93;99349.54;1487801;95;21116;-87
2022/06/22 08:49:44;;;;;;;4.33;2.08;;;;;;;34.73;26.25;99343.38;1487696;96;21148;-86
2022/06/22 08:52:25;;;;;;;10.95;2.52;;;;;;;33.93;26.75;99342.33;1487285;95;21144;-88
2022/06/22 08:55:33;;;;;;;5.92;2.40;;;;;;;33.19;27.56;99356.02;1485482;95;21068;-89
2022/06/22 08:58:04;;;;;;;5.30;2.20;;;;;;;33.63;28.48;99361.26;1462439;96;21488;-88
2022/06/22 09:01:05;;;;;;;8.80;2.55;;;;;;;33.37;27.66;99363.86;1463049;96;21152;-90
2022/06/22 09:03:55;;;;;;;6.40;2.60;;;;;;;32.89;28.20;99358.06;1447981;99;21183;-90
2022/06/22 09:06:38;;;;;;;4.50;1.98;;;;;;;32.47;28.72;99358.62;1447975;99;21102;-87
2022/06/22 09:09:31;;;;;;;3.35;1.55;;;;;;;32.07;28.96;99357.45;1447929;99;21120;-93
2022/06/22 09:12:12;;;;;;;;;;;;;;;32.03;29.49;99351.97;1483331;94;20991;-90
2022/06/22 09:14:56;;;;;;;7.53;2.65;;;;;;;32.07;29.01;99349.09;1521874;93;20232;-90
2022/06/22 09:17:54;;;;;;;4.47;2.10;;;;;;;31.94;28.79;99340.63;1502682;95;21582;-93
2022/06/22 09:21:01;;;;;;;11.65;2.02;;;;;;;32.05;28.97;99344.55;1502822;95;21299;-88
2022/06/22 09:23:47;;;;;;;3.22;2.08;;;;;;;32.48;29.21;99342.85;1502609;95;21119;-87
2022/06/22 09:26:36;;;;;;;5.35;2.17;;;;;;;32.64;28.34;99344.02;1484013;96;21123;-87
2022/06/22 09:29:19;;;;;;;2.62;1.55;;;;;;;32.62;28.23;99352.84;1481492;96;21102;-89
2022/06/22 09:32:10;;;;;;;6.70;1.57;;;;;;;32.72;27.84;99344.00;1439123;99;21629;-88
2022/06/22 09:35:04;;;;;;;2.83;1.60;;;;;;;32.74;27.92;99353.49;1457279;95;22009;-92
2022/06/22 09:38:13;;;;;;;2.70;1.77;;;;;;;33.19;28.72;99349.81;1509461;95;21562;-94
2022/06/22 09:41:00;;;;;;;7.85;1.80;;;;;;;33.50;27.48;99349.27;1505367;95;21680;-87
2022/06/22 09:43:52;;;;;;;1.72;1.42;;;;;;;33.63;28.03;99340.92;1501401;95;21092;-91
2022/06/22 09:46:57;;;;;;;1.63;0.87;;;;;;;34.26;26.91;99353.23;1501365;95;21078;-92
2022/06/22 09:49:47;;;;;;;6.42;2.50;;;;;;;33.93;26.32;99356.30;1501138;95;21295;-88
2022/06/22 09:52:46;;;;;;;4.65;1.60;;;;;;;33.55;26.46;99355.72;1501240;95;21534;-89
2022/06/22 09:58:34;;;;;;;3.60;1.50;;;;;;;33.46;27.03;99366.14;1500871;95;21054;-87
2022/06/22 10:01:27;;;;;;;1.85;1.35;;;;;;;33.27;26.97;99362.96;1476814;97;21093;-85
2022/06/22 10:04:32;;;;;;;5.60;1.35;;;;;;;33.08;26.71;99366.72;1474999;97;21129;-86
2022/06/22 10:07:25;;;;;;;4.95;1.82;;;;;;;32.86;27.10;99359.56;1476298;96;21127;-90
2022/06/22 10:10:00;;;;;;;4.47;1.40;;;;;;;32.56;26.72;99353.99;1476607;96;21078;-85
2022/06/22 10:12:53;;;;;;;2.80;1.30;;;;;;;32.10;26.59;99353.79;1474138;97;21119;-87
2022/06/22 10:15:39;;;;;;;7.70;1.52;;;;;;;31.70;27.53;99351.14;1551944;89;21002;-87
2022/06/22 10:18:40;;;;;;;7.25;1.20;;;;;;;31.42;28.44;99357.56;1607096;89;21171;-91
2022/06/22 10:21:23;;;;;;;4.85;1.30;;;;;;;31.16;28.00;99362.69;1607143;89;21070;-88
2022/06/22 10:24:23;;;;;;;4.28;1.57;;;;;;;31.03;28.32;99358.37;1606128;89;21066;-87
2022/06/22 10:27:18;;;;;;;9.45;1.30;;;;;;;30.90;28.75;99364.42;1606718;89;21470;-87
2022/06/22 10:30:13;;;;;;;5.00;1.17;;;;;;;30.42;29.27;99360.94;1661083;86;21014;-86
2022/06/22 10:32:44;;;;;;;4.58;1.00;;;;;;;30.29;29.00;99369.09;1664218;86;21148;-87
2022/06/22 10:35:33;;;;;;;5.87;1.35;;;;;;;30.26;29.85;99366.38;1664451;86;20970;-86
2022/06/22 10:38:26;;;;;;;7.22;1.55;;;;;;;30.24;30.33;99362.65;1660734;84;21035;-87
2022/06/22 10:45:10;;;;;;;5.92;1.65;;;;;;;30.22;30.17;99369.84;1694847;84;21003;-87
2022/06/22 10:48:28;;;;;;;3.83;1.27;;;;;;;30.16;30.44;99372.89;1640142;87;21377;-88
2022/06/22 10:51:35;;;;;;;5.78;1.47;;;;;;;30.08;31.47;99374.99;1640095;87;21149;-90
2022/06/22 10:54:26;;;;;;;2.87;1.50;;;;;;;30.13;31.36;99366.19;1640450;87;21030;-85
2022/06/22 10:57:39;;;;;;;8.48;1.60;;;;;;;30.37;30.99;99364.20;1640033;87;21581;-87
2022/06/22 11:00:20;;;;;;;4.33;1.62;;;;;;;30.18;30.82;99364.89;1640477;87;21489;-89
2022/06/22 11:03:28;;;;;;;2.33;1.45;;;;;;;30.01;30.79;99365.41;1640133;87;21201;-85
2022/06/22 11:06:21;;;;;;;8.48;1.70;;;;;;;30.01;31.38;99376.52;1640341;87;21134;-88
2022/06/22 11:09:04;;;;;;;5.45;1.60;;;;;;;29.84;31.50;99376.36;1640677;87;21011;-85
2022/06/22 11:11:38;;;;;;;2.65;1.70;;;;;;;29.59;31.40;99374.53;1640746;87;21506;-87
2022/06/22 11:14:51;;;;;;;3.80;1.70;;;;;;;29.57;32.00;99380.52;1584085;90;21148;-90
2022/06/22 11:17:55;;;;;;;3.92;1.72;;;;;;;29.16;31.67;99389.02;1584148;90;21252;-89
2022/06/22 11:20:42;;;;;;;1.80;1.20;;;;;;;28.47;32.16;99388.96;1584212;90;21046;-86
2022/06/22 11:23:19;;;;;;;11.25;1.77;;;;;;;27.74;33.36;99389.11;1596005;89;21165;-90
2022/06/22 11:32:26;;;;;;;4.87;1.17;;;;;;;26.53;37.95;99409.09;1628633;88;21035;-88
2022/06/22 11:37:23;;;;;;;5.92;1.40;;;;;;;27.16;38.69;99412.13;1870337;76;22178;-87
2022/06/22 11:40:23;;;;;;;4.62;1.25;;;;;;;27.19;38.61;99423.78;1793148;79;20923;-89
2022/06/22 11:43:32;;;;;;;5.58;1.10;;;;;;;26.95;38.14;99433.71;1796609;79;21952;-86
2022/06/22 11:46:40;;;;;;;6.50;0.80;;;;;;;26.57;38.70;99436.75;1719101;83;21266;-88
2022/06/22 11:49:23;;;;;;;2.58;0.60;;;;;;;26.43;38.71;99438.89;1716262;83;21004;-88
2022/06/22 11:51:57;;;;;;;2.22;0.53;;;;;;;26.02;38.06;99437.29;1719272;83;22545;-88
2022/06/22 11:55:17;;;;;;;5.78;0.88;;;;;;;25.80;39.03;99424.03;1654172;86;21071;-90
2022/06/22 11:58:12;;;;;;;2.15;0.30;;;;;;;25.60;38.56;99428.31;1656462;86;22085;-87
2022/06/22 12:00:56;;;;;;;2.35;0.30;;;;;;;25.19;38.75;99426.40;1653612;86;21027;-88
2022/06/22 12:03:36;;;;;;;2.00;0.85;;;;;;;24.60;39.17;99429.19;1656940;86;21051;-87
2022/06/22 12:06:47;;;;;;;0.70;0.50;;;;;;;24.04;41.88;99417.30;1656806;86;21575;-89
2022/06/22 12:09:18;;;;;;;3.22;0.70;;;;;;;23.67;44.82;99414.54;1656937;86;21595;-88
2022/06/22 12:12:06;;;;;;;3.65;0.78;;;;;;;23.52;48.34;99415.76;1553490;91;21155;-86
2022/06/22 12:15:05;;;;;;;2.52;1.00;;;;;;;23.79;54.28;99411.55;1552928;92;21053;-87
2022/06/22 12:17:59;;;;;;;2.65;0.80;;;;;;;24.22;55.04;99393.45;1584781;88;21115;-86
2022/06/22 12:20:51;;;;;;;1.05;0.55;;;;;;;25.09;56.24;99385.14;1600690;89;21088;-85
2022/06/22 12:23:38;;;;;;;2.80;0.70;;;;;;;25.87;51.21;99379.70;1597649;88;21068;-86
2022/06/22 12:26:33;;;;;;;1.10;0.60;;;;;;;26.40;48.65;99372.78;1549527;92;21319;-85
2022/06/22 12:29:37;;;;;;;0.53;0.37;;;;;;;26.90;46.21;99365.77;1549431;92;22021;-90
2022/06/22 12:32:19;;;;;;;1.07;0.50;;;;;;;27.12;43.89;99369.25;1570059;90;21088;-86
2022/06/22 12:35:06;;;;;;;0.72;0.55;;;;;;;27.39;42.23;99362.62;1477945;97;21047;-86
2022/06/22 12:37:49;;;;;;;2.92;0.60;;;;;;;27.53;41.18;99353.45;1488873;95;21144;-87
2022/06/22 12:40:34;;;;;;;0.62;0.60;;;;;;;27.44;40.08;99364.76;1462323;96;22105;-85
2022/06/22 12:43:14;;;;;;;1.25;0.50;;;;;;;27.38;39.89;99362.44;1460285;98;21620;-87
2022/06/22 12:45:56;;;;;;;2.15;0.65;;;;;;;27.13;39.95;99363.13;1460636;98;21119;-86
2022/06/22 12:48:39;;;;;;;1.00;0.40;;;;;;;26.97;39.64;99363.56;1467402;94;21133;-86
2022/06/22 12:51:26;;;;;;;3.25;0.50;;;;;;;26.88;39.24;99378.41;1525794;94;21062;-86
2022/06/22 12:54:07;;;;;;;1.87;0.45;;;;;;;26.68;39.47;99381.64;1525533;94;21106;-85
2022/06/22 12:57:15;;;;;;;0.40;0.40;;;;;;;26.58;39.58;99391.33;1525943;94;21019;-89
2022/06/22 13:00:01;;;;;;;1.17;0.60;;;;;;;26.28;39.57;99400.22;1473487;97;21100;-86
2022/06/22 13:02:30;;;;;;;1.05;0.65;;;;;;;25.86;40.24;99405.14;1473232;97;22541;-87
2022/06/22 13:05:14;;;;;;;1.60;0.85;;;;;;;25.51;41.01;99421.00;1473469;97;21139;-87
2022/06/22 13:07:45;;;;;;;1.50;0.72;;;;;;;25.23;41.58;99428.57;1473503;97;21103;-85
2022/06/22 13:10:18;;;;;;;5.08;0.80;;;;;;;24.94;42.48;99417.37;1470980;97;21682;-87